createdAt,value
2022-10-10T00:00:35.742Z,100.00
2022-10-10T00:03:25.455Z,100.00
2022-10-10T00:06:14.605Z,100.00
2022-10-10T00:09:02.950Z,100.00
2022-10-10T00:11:50.891Z,100.00
2022-10-10T00:14:38.801Z,100.00
2022-10-10T00:17:26.738Z,100.00
2022-10-10T00:20:18.560Z,100.00
2022-10-10T00:23:06.486Z,100.00
2022-10-10T00:25:54.508Z,100.00
2022-10-10T00:28:42.564Z,100.00
2022-10-10T00:31:30.821Z,100.00
2022-10-10T00:34:18.901Z,100.00
2022-10-10T00:37:08.213Z,100.00
2022-10-10T00:39:56.210Z,100.00
2022-10-10T00:42:44.162Z,100.00
2022-10-10T00:45:38.671Z,100.00
2022-10-10T00:48:31.176Z,100.00
2022-10-10T00:51:20.452Z,100.00
2022-10-10T00:54:13.112Z,100.00
2022-10-10T00:57:05.439Z,100.00
2022-10-10T00:59:54.277Z,100.00
2022-10-10T01:02:42.305Z,100.00
2022-10-10T01:05:30.724Z,100.00
2022-10-10T01:08:19.960Z,100.00
2022-10-10T01:11:25.112Z,100.00
2022-10-10T01:14:24.971Z,100.00
2022-10-10T01:17:21.491Z,100.00
2022-10-10T01:20:42.070Z,100.00
2022-10-10T01:24:03.577Z,100.00
2022-10-10T01:27:09.274Z,100.00
2022-10-10T01:30:02.836Z,100.00
2022-10-10T01:32:54.340Z,100.00
2022-10-10T01:35:51.589Z,100.00
2022-10-10T01:38:44.165Z,100.00
2022-10-10T01:41:36.885Z,100.00
2022-10-10T01:44:24.867Z,100.00
2022-10-10T01:47:14.666Z,100.00
2022-10-10T01:50:05.593Z,100.00
2022-10-10T01:53:03.426Z,100.00
2022-10-10T01:55:57.288Z,100.00
2022-10-10T01:59:04.327Z,100.00
2022-10-10T02:01:56.157Z,100.00
2022-10-10T02:04:50.437Z,100.00
2022-10-10T02:07:42.997Z,100.00
2022-10-10T02:10:34.593Z,100.00
2022-10-10T02:13:24.150Z,100.00
2022-10-10T02:16:17.023Z,100.00
2022-10-10T02:19:09.312Z,100.00
2022-10-10T02:21:59.562Z,100.00
2022-10-10T02:24:47.465Z,100.00
2022-10-10T02:27:40.648Z,100.00
2022-10-10T02:30:29.295Z,100.00
2022-10-10T02:33:21.102Z,100.00
2022-10-10T02:36:10.201Z,100.00
2022-10-10T02:39:00.824Z,100.00
2022-10-10T02:41:51.787Z,100.00
2022-10-10T02:44:40.681Z,100.00
2022-10-10T02:47:28.589Z,100.00
2022-10-10T02:50:16.482Z,100.00
2022-10-10T02:53:04.346Z,100.00
2022-10-10T02:55:53.579Z,100.00
2022-10-10T02:58:41.446Z,100.00
2022-10-10T03:01:29.327Z,100.00
2022-10-10T03:04:17.325Z,100.00
2022-10-10T03:07:05.733Z,100.00
2022-10-10T03:09:53.694Z,100.00
2022-10-10T03:12:42.973Z,100.00
2022-10-10T03:15:30.844Z,100.00
2022-10-10T03:18:18.997Z,100.00
2022-10-10T03:21:07.044Z,100.00
2022-10-10T03:23:54.916Z,100.00
2022-10-10T03:26:42.771Z,100.00
2022-10-10T03:29:32.072Z,100.00
2022-10-10T03:32:19.966Z,100.00
2022-10-10T03:35:08.388Z,100.00
2022-10-10T03:37:57.150Z,100.00
2022-10-10T03:40:46.034Z,100.00
2022-10-10T03:43:33.922Z,100.00
2022-10-10T03:46:23.169Z,100.00
2022-10-10T03:49:11.681Z,100.00
2022-10-10T03:52:00.483Z,100.00
2022-10-10T03:54:48.353Z,100.00
2022-10-10T03:57:36.251Z,100.00
2022-10-10T04:00:24.121Z,100.00
2022-10-10T04:03:13.287Z,100.00
2022-10-10T04:06:01.265Z,100.00
2022-10-10T04:08:49.164Z,100.00
2022-10-10T04:11:38.537Z,100.00
2022-10-10T04:14:26.739Z,100.00
2022-10-10T04:17:14.980Z,100.00
2022-10-10T04:20:04.667Z,100.00
2022-10-10T04:22:52.933Z,100.00
2022-10-10T04:25:41.764Z,100.00
2022-10-10T04:28:30.756Z,100.00
2022-10-10T04:31:18.678Z,100.00
2022-10-10T04:34:06.645Z,100.00
2022-10-10T04:36:55.913Z,100.00
2022-10-10T04:39:43.773Z,100.00
2022-10-10T04:42:31.971Z,100.00
2022-10-10T04:45:19.913Z,100.00
2022-10-10T04:48:07.764Z,100.00
2022-10-10T04:50:57.373Z,100.00
2022-10-10T04:53:50.308Z,100.00
2022-10-10T04:56:38.611Z,100.00
2022-10-10T04:59:26.714Z,100.00
2022-10-10T05:02:14.802Z,100.00
2022-10-10T05:05:03.176Z,100.00
2022-10-10T05:07:55.273Z,100.00
2022-10-10T05:10:47.140Z,100.00
2022-10-10T05:13:35.018Z,100.00
2022-10-10T05:16:23.077Z,100.00
2022-10-10T05:19:10.995Z,100.00
2022-10-10T05:21:58.908Z,100.00
2022-10-10T05:24:46.745Z,100.00
2022-10-10T05:27:35.997Z,100.00
2022-10-10T05:30:23.899Z,100.00
2022-10-10T05:33:12.196Z,100.00
2022-10-10T05:36:05.007Z,100.00
2022-10-10T05:38:53.040Z,100.00
2022-10-10T05:41:40.924Z,100.00
2022-10-10T05:44:31.849Z,100.00
2022-10-10T05:47:23.097Z,100.00
2022-10-10T05:50:27.149Z,100.00
2022-10-10T05:53:15.195Z,100.00
2022-10-10T05:56:03.086Z,100.00
2022-10-10T05:58:51.314Z,100.00
2022-10-10T06:01:40.593Z,100.00
2022-10-10T06:04:08.494Z,100.00
2022-10-10T06:06:36.385Z,100.00
2022-10-10T06:09:04.853Z,100.00
2022-10-10T06:11:32.566Z,100.00
2022-10-10T06:14:00.255Z,100.00
2022-10-10T06:16:28.664Z,100.00
2022-10-10T06:18:58.017Z,100.00
2022-10-10T06:21:26.545Z,100.00
2022-10-10T06:23:54.207Z,100.00
2022-10-10T06:26:21.871Z,100.00
2022-10-10T06:28:50.730Z,100.00
2022-10-10T06:31:18.426Z,100.00
2022-10-10T06:33:47.981Z,100.00
2022-10-10T06:36:18.064Z,100.00
2022-10-10T06:38:46.715Z,100.00
2022-10-10T06:41:14.605Z,100.00
2022-10-10T06:43:42.448Z,100.00
2022-10-10T06:46:11.626Z,100.00
2022-10-10T06:48:39.273Z,100.00
2022-10-10T06:51:09.349Z,100.00
2022-10-10T06:53:38.354Z,100.00
2022-10-10T06:56:06.386Z,100.00
2022-10-10T06:58:35.007Z,100.00
2022-10-10T07:01:05.151Z,100.00
2022-10-10T07:03:32.773Z,100.00
2022-10-10T07:06:01.961Z,100.00
2022-10-10T07:08:32.782Z,100.00
2022-10-10T07:11:02.063Z,100.00
2022-10-10T07:13:29.711Z,100.00
2022-10-10T07:15:57.676Z,100.00
2022-10-10T07:18:25.281Z,100.00
2022-10-10T07:20:57.206Z,100.00
2022-10-10T07:23:25.282Z,100.00
2022-10-10T07:25:53.491Z,100.00
2022-10-10T07:28:22.483Z,100.00
2022-10-10T07:30:50.240Z,100.00
2022-10-10T07:33:17.839Z,100.00
2022-10-10T07:35:53.933Z,100.00
2022-10-10T07:38:21.628Z,100.00
2022-10-10T07:40:49.308Z,100.00
2022-10-10T07:43:16.905Z,100.00
2022-10-10T07:45:45.922Z,100.00
2022-10-10T07:48:13.512Z,100.00
2022-10-10T07:50:42.404Z,100.00
2022-10-10T07:53:10.170Z,100.00
2022-10-10T07:55:39.769Z,100.00
2022-10-10T07:58:08.068Z,100.00
2022-10-10T08:00:36.474Z,100.00
2022-10-10T08:03:09.647Z,100.00
2022-10-10T08:05:41.090Z,100.00
2022-10-10T08:08:09.039Z,100.00
2022-10-10T08:10:36.772Z,100.00
2022-10-10T08:13:04.964Z,100.00
2022-10-10T08:15:34.035Z,100.00
2022-10-10T08:18:01.922Z,100.00
2022-10-10T08:20:30.917Z,100.00
2022-10-10T08:22:58.893Z,100.00
2022-10-10T08:25:26.565Z,100.00
2022-10-10T08:27:54.174Z,100.00
2022-10-10T08:30:21.897Z,100.00
2022-10-10T08:32:49.891Z,100.00
2022-10-10T08:35:17.891Z,100.00
2022-10-10T08:37:46.912Z,100.00
2022-10-10T08:40:17.257Z,100.00
2022-10-10T08:42:52.828Z,100.00
2022-10-10T08:45:25.177Z,100.00
2022-10-10T08:47:56.475Z,100.00
2022-10-10T08:50:28.476Z,100.00
2022-10-10T08:53:01.002Z,100.00
2022-10-10T08:55:33.538Z,100.00
2022-10-10T08:58:07.779Z,100.00
2022-10-10T09:00:40.757Z,100.00
2022-10-10T09:03:19.516Z,100.00
2022-10-10T09:06:01.013Z,100.00
2022-10-10T09:08:44.113Z,100.00
2022-10-10T09:11:23.158Z,100.00
2022-10-10T09:14:04.840Z,100.00
2022-10-10T09:16:41.120Z,100.00
2022-10-10T09:19:24.523Z,100.00
2022-10-10T09:21:54.256Z,100.00
2022-10-10T09:24:27.481Z,100.00
2022-10-10T09:27:01.212Z,100.00
2022-10-10T09:29:35.140Z,100.00
2022-10-10T09:32:10.068Z,100.00
2022-10-10T09:34:42.485Z,100.00
2022-10-10T09:37:24.232Z,100.00
2022-10-10T09:40:13.068Z,100.00
2022-10-10T09:42:40.998Z,100.00
2022-10-10T09:45:16.952Z,100.00
2022-10-10T09:47:44.616Z,100.00
2022-10-10T09:50:14.486Z,100.00
2022-10-10T09:52:43.272Z,97.43
2022-10-10T09:55:24.532Z,95.58
2022-10-10T09:57:54.194Z,97.70
2022-10-10T10:00:35.894Z,93.39
2022-10-10T10:03:15.881Z,91.29
2022-10-10T10:05:47.158Z,94.66
2022-10-10T10:08:25.758Z,92.58
2022-10-10T10:10:58.182Z,92.22
2022-10-10T10:13:29.614Z,89.34
2022-10-10T10:16:09.979Z,89.05
2022-10-10T10:18:43.219Z,91.15
2022-10-10T10:21:23.602Z,90.85
2022-10-10T10:23:54.900Z,91.35
2022-10-10T10:26:27.283Z,90.29
2022-10-10T10:28:57.591Z,87.54
2022-10-10T10:31:52.266Z,87.58
2022-10-10T10:34:39.367Z,89.57
2022-10-10T10:37:17.691Z,86.98
2022-10-10T10:40:10.129Z,89.19
2022-10-10T10:42:54.366Z,89.18
2022-10-10T10:45:26.179Z,88.74
2022-10-10T10:48:02.394Z,88.39
2022-10-10T10:50:44.656Z,88.24
2022-10-10T10:53:20.910Z,88.24
2022-10-10T10:55:53.634Z,88.96
2022-10-10T10:59:10.386Z,87.17
2022-10-10T11:01:51.885Z,85.71
2022-10-10T11:05:22.207Z,89.06
2022-10-10T11:07:24.379Z,90.52
2022-10-10T11:09:57.639Z,90.02
2022-10-10T11:12:39.112Z,89.74
2022-10-10T11:15:15.521Z,86.71
2022-10-10T11:17:48.796Z,85.82
2022-10-10T11:20:25.099Z,87.21
2022-10-10T11:22:57.467Z,87.10
2022-10-10T11:25:30.581Z,82.76
2022-10-10T11:28:04.596Z,84.76
2022-10-10T11:30:36.972Z,83.72
2022-10-10T11:33:12.181Z,85.17
2022-10-10T11:35:45.376Z,83.98
2022-10-10T11:38:21.479Z,82.16
2022-10-10T11:40:54.848Z,83.13
2022-10-10T11:43:30.881Z,79.40
2022-10-10T11:46:06.393Z,81.77
2022-10-10T11:48:42.878Z,78.97
2022-10-10T11:51:21.973Z,78.95
2022-10-10T11:53:52.882Z,76.78
2022-10-10T11:56:30.483Z,78.01
2022-10-10T11:59:05.381Z,76.12
2022-10-10T12:01:38.900Z,75.79
2022-10-10T12:04:06.537Z,75.10
2022-10-10T12:06:39.527Z,70.58
2022-10-10T12:09:13.285Z,70.90
2022-10-10T12:11:46.202Z,72.54
2022-10-10T12:14:17.976Z,70.13
2022-10-10T12:16:47.691Z,69.14
2022-10-10T12:19:19.402Z,70.74
2022-10-10T12:21:56.132Z,67.52
2022-10-10T12:24:24.695Z,67.60
2022-10-10T12:27:29.196Z,67.60
2022-10-10T12:30:27.360Z,66.58
2022-10-10T12:32:56.781Z,67.90
2022-10-10T12:35:34.558Z,68.32
2022-10-10T12:38:11.411Z,66.22
2022-10-10T12:41:08.013Z,66.68
2022-10-10T12:43:51.077Z,64.50
2022-10-10T12:46:23.404Z,66.56
2022-10-10T12:49:16.623Z,66.23
2022-10-10T12:51:45.712Z,67.22
2022-10-10T12:54:25.387Z,65.03
2022-10-10T12:57:00.738Z,65.08
2022-10-10T12:59:28.624Z,62.95
2022-10-10T13:01:59.256Z,65.74
2022-10-10T13:04:29.147Z,63.36
2022-10-10T13:06:59.067Z,63.84
2022-10-10T13:09:32.475Z,64.69
2022-10-10T13:12:05.093Z,65.20
2022-10-10T13:14:40.429Z,65.81
2022-10-10T13:17:22.529Z,63.09
2022-10-10T13:19:52.014Z,65.25
2022-10-10T13:22:21.042Z,66.38
2022-10-10T13:24:50.077Z,67.02
2022-10-10T13:27:21.367Z,66.76
2022-10-10T13:29:49.483Z,64.13
2022-10-10T13:32:21.005Z,62.40
2022-10-10T13:34:54.117Z,61.34
2022-10-10T13:37:22.443Z,62.20
2022-10-10T13:39:51.910Z,59.00
2022-10-10T13:42:29.526Z,59.73
2022-10-10T13:45:00.064Z,60.09
2022-10-10T13:47:53.345Z,58.36
2022-10-10T13:50:26.474Z,61.00
2022-10-10T13:53:32.225Z,59.63
2022-10-10T13:56:05.333Z,59.94
2022-10-10T13:58:39.488Z,59.45
2022-10-10T14:01:07.523Z,59.67
2022-10-10T14:03:35.314Z,58.14
2022-10-10T14:06:04.521Z,60.01
2022-10-10T14:08:34.501Z,60.26
2022-10-10T14:11:06.232Z,59.34
2022-10-10T14:13:37.998Z,63.01
2022-10-10T14:16:13.740Z,64.62
2022-10-10T14:18:41.349Z,62.79
2022-10-10T14:21:10.797Z,63.72
2022-10-10T14:23:39.024Z,59.74
2022-10-10T14:26:08.808Z,60.30
2022-10-10T14:28:39.696Z,61.91
2022-10-10T14:31:08.039Z,60.06
2022-10-10T14:33:35.894Z,62.26
2022-10-10T14:36:04.269Z,62.52
2022-10-10T14:38:33.675Z,62.82
2022-10-10T14:41:02.033Z,63.48
2022-10-10T14:43:30.089Z,63.29
2022-10-10T14:45:57.802Z,67.50
2022-10-10T14:48:25.404Z,64.25
2022-10-10T14:50:53.061Z,59.93
2022-10-10T14:53:20.836Z,62.08
2022-10-10T14:55:53.931Z,64.45
2022-10-10T14:58:24.105Z,62.14
2022-10-10T15:00:52.834Z,64.05
2022-10-10T15:03:20.741Z,69.03
2022-10-10T15:05:48.724Z,63.12
2022-10-10T15:08:18.474Z,64.57
2022-10-10T15:10:46.055Z,63.11
2022-10-10T15:13:16.707Z,69.08
2022-10-10T15:15:44.378Z,69.96
2022-10-10T15:18:39.596Z,69.57
2022-10-10T15:21:01.059Z,66.54
2022-10-10T15:23:28.878Z,65.83
2022-10-10T15:26:00.157Z,68.69
2022-10-10T15:28:29.144Z,83.91
2022-10-10T15:30:56.745Z,89.41
2022-10-10T15:33:24.421Z,94.93
2022-10-10T15:36:08.969Z,98.48
2022-10-10T15:38:38.263Z,92.46
2022-10-10T15:41:07.549Z,100.00
2022-10-10T15:43:44.458Z,100.00
2022-10-10T15:46:12.091Z,100.00
2022-10-10T15:48:39.734Z,100.00
2022-10-10T15:51:08.752Z,100.00
2022-10-10T15:53:37.109Z,100.00
2022-10-10T15:56:10.220Z,100.00
2022-10-10T15:58:40.661Z,100.00
2022-10-10T16:01:12.745Z,100.00
2022-10-10T16:03:40.469Z,100.00
2022-10-10T16:06:08.833Z,100.00
2022-10-10T16:08:37.350Z,100.00
2022-10-10T16:11:06.789Z,100.00
2022-10-10T16:13:36.050Z,100.00
2022-10-10T16:16:07.113Z,100.00
2022-10-10T16:18:40.026Z,100.00
2022-10-10T16:21:09.539Z,100.00
2022-10-10T16:23:38.045Z,100.00
2022-10-10T16:26:07.559Z,100.00
2022-10-10T16:28:35.851Z,100.00
2022-10-10T16:31:05.892Z,100.00
2022-10-10T16:33:34.054Z,100.00
2022-10-10T16:36:02.117Z,100.00
2022-10-10T16:38:29.717Z,100.00
2022-10-10T16:40:58.692Z,100.00
2022-10-10T16:43:26.406Z,100.00
2022-10-10T16:45:54.031Z,100.00
2022-10-10T16:48:22.943Z,100.00
2022-10-10T16:50:50.678Z,100.00
2022-10-10T16:53:18.295Z,100.00
2022-10-10T16:55:46.268Z,100.00
2022-10-10T16:58:13.918Z,100.00
2022-10-10T17:00:43.171Z,100.00
2022-10-10T17:03:10.805Z,100.00
2022-10-10T17:05:39.839Z,100.00
2022-10-10T17:08:07.379Z,100.00
2022-10-10T17:10:34.957Z,100.00
2022-10-10T17:13:02.746Z,100.00
2022-10-10T17:15:30.434Z,100.00
2022-10-10T17:17:58.006Z,100.00
2022-10-10T17:20:25.619Z,100.00
2022-10-10T17:22:54.571Z,100.00
2022-10-10T17:25:22.127Z,100.00
2022-10-10T17:27:49.725Z,100.00
2022-10-10T17:30:17.564Z,100.00
2022-10-10T17:32:45.143Z,100.00
2022-10-10T17:35:13.186Z,100.00
2022-10-10T17:37:40.785Z,100.00
2022-10-10T17:40:10.661Z,100.00
2022-10-10T17:42:38.305Z,100.00
2022-10-10T17:45:06.630Z,100.00
2022-10-10T17:47:34.663Z,100.00
2022-10-10T17:50:02.308Z,100.00
2022-10-10T17:52:29.904Z,100.00
2022-10-10T17:54:57.467Z,100.00
2022-10-10T17:57:26.455Z,100.00
2022-10-10T18:02:50.139Z,100.00
2022-10-10T18:05:38.356Z,100.00
2022-10-10T18:08:26.766Z,100.00
2022-10-10T18:11:16.703Z,100.00
2022-10-10T18:14:05.945Z,100.00
2022-10-10T18:16:53.876Z,100.00
2022-10-10T18:19:41.798Z,100.00
2022-10-10T18:22:29.728Z,100.00
2022-10-10T18:25:20.626Z,100.00
2022-10-10T18:28:10.839Z,100.00
2022-10-10T18:31:00.698Z,100.00
2022-10-10T18:33:49.236Z,100.00
2022-10-10T18:36:38.616Z,100.00
2022-10-10T18:39:32.192Z,100.00
2022-10-10T18:42:21.064Z,100.00
2022-10-10T18:45:09.366Z,100.00
2022-10-10T18:47:58.637Z,100.00
2022-10-10T18:50:46.566Z,100.00
2022-10-10T18:53:37.124Z,100.00
2022-10-10T18:56:25.181Z,100.00
2022-10-10T18:59:15.127Z,100.00
2022-10-10T19:02:03.036Z,100.00
2022-10-10T19:04:52.250Z,100.00
2022-10-10T19:07:40.145Z,100.00
2022-10-10T19:10:28.084Z,100.00
2022-10-10T19:13:17.016Z,100.00
2022-10-10T19:16:05.682Z,100.00
2022-10-10T19:18:58.043Z,100.00
2022-10-10T19:21:48.928Z,100.00
2022-10-10T19:24:36.859Z,100.00
2022-10-10T19:27:24.774Z,100.00
2022-10-10T19:30:13.994Z,100.00
2022-10-10T19:33:01.918Z,100.00
2022-10-10T19:35:52.226Z,100.00
2022-10-10T19:38:43.116Z,100.00
2022-10-10T19:41:31.211Z,100.00
2022-10-10T19:44:19.135Z,100.00
2022-10-10T19:47:07.037Z,100.00
2022-10-10T19:49:54.944Z,100.00
2022-10-10T19:52:42.927Z,100.00
2022-10-10T19:55:32.421Z,100.00
2022-10-10T19:58:20.328Z,100.00
2022-10-10T20:01:09.444Z,100.00
2022-10-10T20:03:57.972Z,100.00
2022-10-10T20:06:45.917Z,100.00
2022-10-10T20:09:33.830Z,100.00
2022-10-10T20:12:23.269Z,100.00
2022-10-10T20:15:12.341Z,100.00
2022-10-10T20:18:00.271Z,100.00
2022-10-10T20:20:51.099Z,100.00
2022-10-10T20:23:39.063Z,100.00
2022-10-10T20:26:27.345Z,100.00
2022-10-10T20:29:16.583Z,100.00
2022-10-10T20:32:04.599Z,100.00
2022-10-10T20:34:53.577Z,100.00
2022-10-10T20:37:41.482Z,100.00
2022-10-10T20:40:29.419Z,100.00
2022-10-10T20:43:17.575Z,100.00
2022-10-10T20:46:09.200Z,100.00
2022-10-10T20:48:57.904Z,100.00
2022-10-10T20:51:48.664Z,100.00
2022-10-10T20:54:37.124Z,100.00
2022-10-10T20:57:25.138Z,100.00
2022-10-10T21:00:14.269Z,100.00
2022-10-10T21:03:03.506Z,100.00
2022-10-10T21:06:02.439Z,100.00
2022-10-10T21:08:51.074Z,100.00
2022-10-10T21:11:39.975Z,100.00
2022-10-10T21:14:28.183Z,100.00
2022-10-10T21:17:16.110Z,100.00
2022-10-10T21:20:06.254Z,100.00
2022-10-10T21:22:55.602Z,100.00
2022-10-10T21:25:44.651Z,100.00
2022-10-10T21:28:32.630Z,100.00
2022-10-10T21:31:22.691Z,100.00
2022-10-10T21:34:15.601Z,100.00
2022-10-10T21:37:04.949Z,100.00
2022-10-10T21:39:52.865Z,100.00
2022-10-10T21:42:41.064Z,100.00
2022-10-10T21:45:28.984Z,100.00
2022-10-10T21:48:16.918Z,100.00
2022-10-10T21:51:05.723Z,100.00
2022-10-10T21:53:55.872Z,100.00
2022-10-10T21:56:43.844Z,100.00
2022-10-10T21:59:32.484Z,100.00
2022-10-10T22:02:20.385Z,100.00
2022-10-10T22:05:11.138Z,100.00
2022-10-10T22:07:59.017Z,100.00
2022-10-10T22:10:48.247Z,100.00
2022-10-10T22:13:36.611Z,100.00
2022-10-10T22:16:24.982Z,100.00
2022-10-10T22:19:12.981Z,100.00
2022-10-10T22:22:00.864Z,100.00
2022-10-10T22:24:48.763Z,100.00
2022-10-10T22:27:38.273Z,100.00
2022-10-10T22:30:26.247Z,100.00
2022-10-10T22:33:14.278Z,100.00
2022-10-10T22:36:02.783Z,100.00
2022-10-10T22:38:50.951Z,100.00
2022-10-10T22:41:38.890Z,100.00
2022-10-10T22:44:28.206Z,100.00
2022-10-10T22:47:16.133Z,100.00
2022-10-10T22:50:04.311Z,100.00
2022-10-10T22:52:52.229Z,100.00
2022-10-10T22:55:40.175Z,100.00
2022-10-10T22:58:28.307Z,100.00
2022-10-10T23:01:19.553Z,100.00
2022-10-10T23:04:13.138Z,100.00
2022-10-10T23:07:01.059Z,100.00
2022-10-10T23:09:49.495Z,100.00
2022-10-10T23:12:37.784Z,100.00
2022-10-10T23:15:25.677Z,100.00
2022-10-10T23:18:15.164Z,100.00
2022-10-10T23:21:03.126Z,100.00
2022-10-10T23:23:51.200Z,100.00
2022-10-10T23:26:39.113Z,100.00
2022-10-10T23:29:27.074Z,100.00
2022-10-10T23:32:15.041Z,100.00
2022-10-10T23:35:04.547Z,100.00
2022-10-10T23:37:52.461Z,100.00
2022-10-10T23:40:40.401Z,100.00
2022-10-10T23:43:28.571Z,100.00
2022-10-10T23:46:16.521Z,100.00
2022-10-10T23:49:04.431Z,100.00
2022-10-10T23:51:53.718Z,100.00
2022-10-10T23:54:41.644Z,100.00
2022-10-10T23:57:29.723Z,100.00
